首页
METAR-TAF:

METAR-TAF

机场 :

马尼拉, 菲律宾

尼诺伊·阿基诺国际机场

纬度: 14-31N, 经度: 121-00E, 海拔: 14米

当前天气观测

该预报发布于20分钟前的03:00 UTC
风速5节,风向西,在西之间变化
温度 29°C
湿度 66%
气压 1011 hPa
能见度10公里或以上
散云层高于2300英尺
多云层高于10000英尺

METAR: RPLL 200300Z 28005KT 270V350 9999 SCT023 BKN100 29/22 Q1011 NOSIG RMK A2985

时间: 11:20 (03:20 UTC)

预报

该预报发布于4小时和20分钟前的23:00 UTC
预报有效从20日的 00点(UTC)到 21日的 06点(UTC)
风速6节,风向东转东北
能见度10公里或以上
少量云层高于2300英尺
多云层高于10000英尺
短暂存在
从 20日的 00点(UTC)到 20日的 06点(UTC)
风速11节,风向
散云层高于2300英尺
多云层高于10000英尺
短暂存在
从 20日的 06点(UTC)到 20日的 12点(UTC)
散云层高于2300英尺
多云层高于10000英尺

TAF: RPLL 192300Z 2000/2106 07006KT 9999 FEW023 BKN100 TX31/2006Z TN25/2021Z TEMPO 2000/2006 08011KT SCT023 BKN100 TEMPO 2006/2012 SCT023 BKN100

超过4000个机场的气象观测和天气预报(METAR&TAF报告)。

可查询的气象台以黄色和红色小点在地图上表示。

将鼠标移到小点上方,可查看气象台名称。

然后点击查看天气观测和预报。

如需切换地图:点击带黑十字的绿色按钮放大地图;点击带横线的绿色按钮缩小地图;或者点击绿色箭头查看邻近地区的地图。


METAR-TAF: